sensor_id;sensor_type;location;lat;lon;timestamp;P1;durP1;ratioP1;P2;durP2;ratioP2
61627;SDS011;55193;52.102;5.242;2022-09-12T00:00:39;24.5;;;18.8;;
61627;SDS011;55193;52.102;5.242;2022-09-12T00:02:15;24.8;;;18.8;;
61627;SDS011;55193;52.102;5.242;2022-09-12T00:03:51;27.3;;;19.5;;
61627;SDS011;55193;52.102;5.242;2022-09-12T00:07:08;27.9;;;20.11;;
61627;SDS011;55193;52.102;5.242;2022-09-12T00:08:45;27.8;;;20.11;;
61627;SDS011;55193;52.102;5.242;2022-09-12T00:10:23;28.3;;;19.91;;
61627;SDS011;55193;52.102;5.242;2022-09-12T00:12:01;28.1;;;20.5;;
61627;SDS011;55193;52.102;5.242;2022-09-12T00:15:17;28.4;;;20.7;;
61627;SDS011;55193;52.102;5.242;2022-09-12T00:16:56;27.4;;;20.2;;
61627;SDS011;55193;52.102;5.242;2022-09-12T00:18:33;25.0;;;18.8;;
61627;SDS011;55193;52.102;5.242;2022-09-12T00:21:46;27.8;;;20.0;;
61627;SDS011;55193;52.102;5.242;2022-09-12T00:23:22;28.4;;;20.8;;
61627;SDS011;55193;52.102;5.242;2022-09-12T00:25:00;29.4;;;21.3;;
61627;SDS011;55193;52.102;5.242;2022-09-12T00:26:37;30.0;;;21.4;;
61627;SDS011;55193;52.102;5.242;2022-09-12T00:29:52;27.6;;;20.5;;
61627;SDS011;55193;52.102;5.242;2022-09-12T00:31:29;29.1;;;21.0;;
61627;SDS011;55193;52.102;5.242;2022-09-12T00:33:07;27.0;;;21.0;;
61627;SDS011;55193;52.102;5.242;2022-09-12T00:36:22;30.8;;;22.0;;
61627;SDS011;55193;52.102;5.242;2022-09-12T00:38:00;31.6;;;23.0;;
61627;SDS011;55193;52.102;5.242;2022-09-12T00:39:36;30.0;;;21.8;;
61627;SDS011;55193;52.102;5.242;2022-09-12T00:42:54;30.8;;;22.3;;
61627;SDS011;55193;52.102;5.242;2022-09-12T00:44:48;30.5;;;21.6;;
61627;SDS011;55193;52.102;5.242;2022-09-12T00:46:29;30.8;;;21.3;;
61627;SDS011;55193;52.102;5.242;2022-09-12T00:48:16;28.4;;;20.2;;
61627;SDS011;55193;52.102;5.242;2022-09-12T00:50:03;31.9;;;21.7;;
61627;SDS011;55193;52.102;5.242;2022-09-12T00:51:45;29.8;;;21.1;;
61627;SDS011;55193;52.102;5.242;2022-09-12T00:55:06;31.0;;;21.8;;
61627;SDS011;55193;52.102;5.242;2022-09-12T00:56:46;30.4;;;21.1;;
61627;SDS011;55193;52.102;5.242;2022-09-12T00:58:29;30.1;;;21.4;;
61627;SDS011;55193;52.102;5.242;2022-09-12T01:00:14;28.1;;;20.8;;
61627;SDS011;55193;52.102;5.242;2022-09-12T01:03:31;30.5;;;21.2;;
61627;SDS011;55193;52.102;5.242;2022-09-12T01:05:09;32.0;;;22.0;;
61627;SDS011;55193;52.102;5.242;2022-09-12T01:06:47;32.21;;;22.6;;
61627;SDS011;55193;52.102;5.242;2022-09-12T01:10:05;30.3;;;21.6;;
61627;SDS011;55193;52.102;5.242;2022-09-12T01:11:45;31.2;;;22.2;;
61627;SDS011;55193;52.102;5.242;2022-09-12T01:13:24;32.5;;;23.1;;
61627;SDS011;55193;52.102;5.242;2022-09-12T01:15:01;32.8;;;22.8;;
61627;SDS011;55193;52.102;5.242;2022-09-12T01:18:18;33.8;;;23.4;;
61627;SDS011;55193;52.102;5.242;2022-09-12T01:20:13;32.21;;;22.5;;
61627;SDS011;55193;52.102;5.242;2022-09-12T01:22:35;31.9;;;22.1;;
61627;SDS011;55193;52.102;5.242;2022-09-12T01:24:36;31.8;;;22.2;;
61627;SDS011;55193;52.102;5.242;2022-09-12T01:26:38;30.7;;;22.3;;
61627;SDS011;55193;52.102;5.242;2022-09-12T01:29:44;32.8;;;22.1;;
61627;SDS011;55193;52.102;5.242;2022-09-12T01:33:05;31.2;;;22.3;;
61627;SDS011;55193;52.102;5.242;2022-09-12T01:35:56;33.21;;;22.1;;
61627;SDS011;55193;52.102;5.242;2022-09-12T01:37:47;35.21;;;23.6;;
61627;SDS011;55193;52.102;5.242;2022-09-12T01:41:22;33.3;;;23.0;;
61627;SDS011;55193;52.102;5.242;2022-09-12T01:43:07;31.3;;;23.1;;
61627;SDS011;55193;52.102;5.242;2022-09-12T01:44:55;34.21;;;23.1;;
61627;SDS011;55193;52.102;5.242;2022-09-12T01:46:44;34.5;;;23.3;;
61627;SDS011;55193;52.102;5.242;2022-09-12T01:48:28;34.81;;;23.6;;
61627;SDS011;55193;52.102;5.242;2022-09-12T01:51:54;33.6;;;23.7;;
61627;SDS011;55193;52.102;5.242;2022-09-12T01:53:36;36.4;;;24.8;;
61627;SDS011;55193;52.102;5.242;2022-09-12T01:55:19;36.1;;;24.3;;
61627;SDS011;55193;52.102;5.242;2022-09-12T01:57:03;37.4;;;25.2;;
61627;SDS011;55193;52.102;5.242;2022-09-12T01:58:49;37.9;;;25.1;;
61627;SDS011;55193;52.102;5.242;2022-09-12T02:02:10;36.71;;;24.8;;
61627;SDS011;55193;52.102;5.242;2022-09-12T02:03:51;35.81;;;23.7;;
61627;SDS011;55193;52.102;5.242;2022-09-12T02:05:36;35.71;;;24.4;;
61627;SDS011;55193;52.102;5.242;2022-09-12T02:07:18;36.0;;;25.3;;
61627;SDS011;55193;52.102;5.242;2022-09-12T02:10:42;37.9;;;25.2;;
61627;SDS011;55193;52.102;5.242;2022-09-12T02:12:33;37.1;;;25.6;;
61627;SDS011;55193;52.102;5.242;2022-09-12T02:14:18;38.81;;;25.7;;
61627;SDS011;55193;52.102;5.242;2022-09-12T02:16:00;35.6;;;25.3;;
61627;SDS011;55193;52.102;5.242;2022-09-12T02:17:43;36.0;;;24.9;;
61627;SDS011;55193;52.102;5.242;2022-09-12T02:21:08;38.6;;;26.5;;
61627;SDS011;55193;52.102;5.242;2022-09-12T02:22:45;38.5;;;26.3;;
61627;SDS011;55193;52.102;5.242;2022-09-12T02:24:27;39.9;;;26.1;;
61627;SDS011;55193;52.102;5.242;2022-09-12T02:26:08;39.9;;;26.5;;
61627;SDS011;55193;52.102;5.242;2022-09-12T02:29:36;36.81;;;25.5;;
61627;SDS011;55193;52.102;5.242;2022-09-12T02:31:13;38.21;;;25.8;;
61627;SDS011;55193;52.102;5.242;2022-09-12T02:32:59;37.9;;;25.9;;
61627;SDS011;55193;52.102;5.242;2022-09-12T02:34:43;39.21;;;25.8;;
61627;SDS011;55193;52.102;5.242;2022-09-12T02:36:29;37.9;;;25.7;;
61627;SDS011;55193;52.102;5.242;2022-09-12T02:39:59;38.81;;;25.2;;
61627;SDS011;55193;52.102;5.242;2022-09-12T02:41:36;38.6;;;25.3;;
61627;SDS011;55193;52.102;5.242;2022-09-12T02:43:13;36.71;;;25.2;;
61627;SDS011;55193;52.102;5.242;2022-09-12T02:44:51;33.21;;;23.4;;
61627;SDS011;55193;52.102;5.242;2022-09-12T02:48:19;37.31;;;24.6;;
61627;SDS011;55193;52.102;5.242;2022-09-12T02:50:00;37.6;;;24.8;;
61627;SDS011;55193;52.102;5.242;2022-09-12T02:51:37;37.0;;;24.5;;
61627;SDS011;55193;52.102;5.242;2022-09-12T02:53:14;37.21;;;26.2;;
61627;SDS011;55193;52.102;5.242;2022-09-12T02:56:33;39.6;;;25.7;;
61627;SDS011;55193;52.102;5.242;2022-09-12T02:58:12;39.21;;;25.2;;
61627;SDS011;55193;52.102;5.242;2022-09-12T02:59:53;36.31;;;24.8;;
61627;SDS011;55193;52.102;5.242;2022-09-12T03:01:39;36.9;;;25.1;;
61627;SDS011;55193;52.102;5.242;2022-09-12T03:03:35;36.9;;;25.7;;
61627;SDS011;55193;52.102;5.242;2022-09-12T03:07:10;39.31;;;25.5;;
61627;SDS011;55193;52.102;5.242;2022-09-12T03:08:54;41.5;;;26.9;;
61627;SDS011;55193;52.102;5.242;2022-09-12T03:10:39;45.3;;;29.1;;
61627;SDS011;55193;52.102;5.242;2022-09-12T03:12:35;37.21;;;25.1;;
61627;SDS011;55193;52.102;5.242;2022-09-12T03:14:27;38.1;;;25.7;;
61627;SDS011;55193;52.102;5.242;2022-09-12T03:16:20;39.71;;;25.7;;
61627;SDS011;55193;52.102;5.242;2022-09-12T03:20:08;38.5;;;25.8;;
61627;SDS011;55193;52.102;5.242;2022-09-12T03:21:52;38.1;;;25.3;;
61627;SDS011;55193;52.102;5.242;2022-09-12T03:23:40;39.31;;;26.7;;
61627;SDS011;55193;52.102;5.242;2022-09-12T03:25:27;37.6;;;24.2;;
61627;SDS011;55193;52.102;5.242;2022-09-12T03:27:10;39.6;;;26.1;;
61627;SDS011;55193;52.102;5.242;2022-09-12T03:28:50;39.71;;;25.5;;
61627;SDS011;55193;52.102;5.242;2022-09-12T03:32:14;40.0;;;26.3;;
61627;SDS011;55193;52.102;5.242;2022-09-12T03:33:51;38.0;;;24.5;;
61627;SDS011;55193;52.102;5.242;2022-09-12T03:35:27;38.81;;;25.8;;
61627;SDS011;55193;52.102;5.242;2022-09-12T03:37:05;38.21;;;25.3;;
61627;SDS011;55193;52.102;5.242;2022-09-12T03:40:18;39.31;;;25.4;;
61627;SDS011;55193;52.102;5.242;2022-09-12T03:41:54;36.81;;;25.3;;
61627;SDS011;55193;52.102;5.242;2022-09-12T03:43:32;37.4;;;24.6;;
61627;SDS011;55193;52.102;5.242;2022-09-12T03:46:46;35.9;;;24.4;;
61627;SDS011;55193;52.102;5.242;2022-09-12T03:48:22;33.8;;;23.5;;
61627;SDS011;55193;52.102;5.242;2022-09-12T03:49:58;38.1;;;24.7;;
61627;SDS011;55193;52.102;5.242;2022-09-12T03:53:11;38.81;;;25.9;;
61627;SDS011;55193;52.102;5.242;2022-09-12T03:54:47;37.0;;;25.1;;
61627;SDS011;55193;52.102;5.242;2022-09-12T03:56:24;39.9;;;24.9;;
61627;SDS011;55193;52.102;5.242;2022-09-12T03:58:00;37.1;;;25.3;;
61627;SDS011;55193;52.102;5.242;2022-09-12T04:01:13;38.5;;;24.9;;
61627;SDS011;55193;52.102;5.242;2022-09-12T04:02:52;35.0;;;24.5;;
61627;SDS011;55193;52.102;5.242;2022-09-12T04:04:29;35.4;;;24.0;;
61627;SDS011;55193;52.102;5.242;2022-09-12T04:07:45;35.0;;;24.5;;
61627;SDS011;55193;52.102;5.242;2022-09-12T04:09:22;38.5;;;24.5;;
61627;SDS011;55193;52.102;5.242;2022-09-12T04:11:01;39.0;;;25.4;;
61627;SDS011;55193;52.102;5.242;2022-09-12T04:12:38;36.21;;;24.5;;
61627;SDS011;55193;52.102;5.242;2022-09-12T04:15:58;39.0;;;25.1;;
61627;SDS011;55193;52.102;5.242;2022-09-12T04:17:35;35.21;;;24.1;;
61627;SDS011;55193;52.102;5.242;2022-09-12T04:19:11;37.21;;;25.7;;
61627;SDS011;55193;52.102;5.242;2022-09-12T04:22:23;36.5;;;24.7;;
61627;SDS011;55193;52.102;5.242;2022-09-12T04:23:59;37.9;;;24.5;;
61627;SDS011;55193;52.102;5.242;2022-09-12T04:25:35;37.71;;;25.3;;
61627;SDS011;55193;52.102;5.242;2022-09-12T04:27:11;36.0;;;24.5;;
61627;SDS011;55193;52.102;5.242;2022-09-12T04:30:30;36.6;;;25.3;;
61627;SDS011;55193;52.102;5.242;2022-09-12T04:32:08;37.31;;;25.0;;
61627;SDS011;55193;52.102;5.242;2022-09-12T04:33:44;37.1;;;25.3;;
61627;SDS011;55193;52.102;5.242;2022-09-12T04:36:57;37.9;;;26.1;;
61627;SDS011;55193;52.102;5.242;2022-09-12T04:38:34;37.9;;;25.3;;
61627;SDS011;55193;52.102;5.242;2022-09-12T04:40:12;38.71;;;26.1;;
61627;SDS011;55193;52.102;5.242;2022-09-12T04:43:24;38.5;;;25.6;;
61627;SDS011;55193;52.102;5.242;2022-09-12T04:45:00;40.5;;;26.1;;
61627;SDS011;55193;52.102;5.242;2022-09-12T04:46:38;41.3;;;26.5;;
61627;SDS011;55193;52.102;5.242;2022-09-12T04:48:16;38.21;;;25.8;;
61627;SDS011;55193;52.102;5.242;2022-09-12T04:51:30;39.31;;;25.9;;
61627;SDS011;55193;52.102;5.242;2022-09-12T04:53:08;40.5;;;26.9;;
61627;SDS011;55193;52.102;5.242;2022-09-12T04:54:44;40.81;;;26.9;;
61627;SDS011;55193;52.102;5.242;2022-09-12T04:57:57;38.5;;;25.5;;
61627;SDS011;55193;52.102;5.242;2022-09-12T04:59:33;34.31;;;24.2;;
61627;SDS011;55193;52.102;5.242;2022-09-12T05:01:11;37.71;;;25.9;;
61627;SDS011;55193;52.102;5.242;2022-09-12T05:02:49;40.71;;;27.1;;
61627;SDS011;55193;52.102;5.242;2022-09-12T05:06:01;39.5;;;26.5;;
61627;SDS011;55193;52.102;5.242;2022-09-12T05:07:38;42.8;;;27.8;;
61627;SDS011;55193;52.102;5.242;2022-09-12T05:09:15;41.9;;;27.3;;
61627;SDS011;55193;52.102;5.242;2022-09-12T05:12:29;43.7;;;27.4;;
61627;SDS011;55193;52.102;5.242;2022-09-12T05:14:07;40.4;;;28.1;;
61627;SDS011;55193;52.102;5.242;2022-09-12T05:15:52;45.6;;;29.2;;
61627;SDS011;55193;52.102;5.242;2022-09-12T05:17:29;43.2;;;27.9;;
61627;SDS011;55193;52.102;5.242;2022-09-12T05:20:42;41.9;;;27.7;;
61627;SDS011;55193;52.102;5.242;2022-09-12T05:22:18;43.0;;;28.6;;
61627;SDS011;55193;52.102;5.242;2022-09-12T05:23:55;43.2;;;27.9;;
61627;SDS011;55193;52.102;5.242;2022-09-12T05:27:09;43.0;;;26.7;;
61627;SDS011;55193;52.102;5.242;2022-09-12T05:28:45;42.8;;;27.8;;
61627;SDS011;55193;52.102;5.242;2022-09-12T05:30:22;44.2;;;28.2;;
61627;SDS011;55193;52.102;5.242;2022-09-12T05:33:34;44.6;;;29.5;;
61627;SDS011;55193;52.102;5.242;2022-09-12T05:35:12;42.9;;;27.8;;
61627;SDS011;55193;52.102;5.242;2022-09-12T05:36:48;41.6;;;27.0;;
61627;SDS011;55193;52.102;5.242;2022-09-12T05:38:25;40.31;;;26.9;;
61627;SDS011;55193;52.102;5.242;2022-09-12T05:41:43;42.6;;;27.4;;
61627;SDS011;55193;52.102;5.242;2022-09-12T05:43:19;44.3;;;29.1;;
61627;SDS011;55193;52.102;5.242;2022-09-12T05:44:56;43.6;;;28.6;;
61627;SDS011;55193;52.102;5.242;2022-09-12T05:48:12;44.6;;;28.7;;
61627;SDS011;55193;52.102;5.242;2022-09-12T05:49:51;44.6;;;28.6;;
61627;SDS011;55193;52.102;5.242;2022-09-12T05:51:28;45.0;;;29.0;;
61627;SDS011;55193;52.102;5.242;2022-09-12T05:53:09;46.3;;;29.8;;
61627;SDS011;55193;52.102;5.242;2022-09-12T05:56:24;48.9;;;30.6;;
61627;SDS011;55193;52.102;5.242;2022-09-12T05:58:03;48.0;;;30.0;;
61627;SDS011;55193;52.102;5.242;2022-09-12T05:59:40;47.9;;;30.6;;
61627;SDS011;55193;52.102;5.242;2022-09-12T06:02:55;46.9;;;29.6;;
61627;SDS011;55193;52.102;5.242;2022-09-12T06:04:31;46.5;;;29.5;;
61627;SDS011;55193;52.102;5.242;2022-09-12T06:06:07;46.5;;;29.5;;
61627;SDS011;55193;52.102;5.242;2022-09-12T06:07:44;49.0;;;30.5;;
61627;SDS011;55193;52.102;5.242;2022-09-12T06:10:59;56.0;;;31.3;;
61627;SDS011;55193;52.102;5.242;2022-09-12T06:12:36;48.3;;;30.7;;
61627;SDS011;55193;52.102;5.242;2022-09-12T06:14:12;44.3;;;28.4;;
61627;SDS011;55193;52.102;5.242;2022-09-12T06:17:27;54.4;;;30.7;;
61627;SDS011;55193;52.102;5.242;2022-09-12T06:19:04;48.2;;;29.7;;
61627;SDS011;55193;52.102;5.242;2022-09-12T06:20:43;49.1;;;30.8;;
61627;SDS011;55193;52.102;5.242;2022-09-12T06:22:20;49.0;;;30.9;;
61627;SDS011;55193;52.102;5.242;2022-09-12T06:25:34;50.9;;;31.2;;
61627;SDS011;55193;52.102;5.242;2022-09-12T06:27:10;47.7;;;29.6;;
61627;SDS011;55193;52.102;5.242;2022-09-12T06:28:48;49.5;;;30.8;;
61627;SDS011;55193;52.102;5.242;2022-09-12T06:32:02;51.1;;;31.0;;
61627;SDS011;55193;52.102;5.242;2022-09-12T06:33:39;50.3;;;31.6;;
61627;SDS011;55193;52.102;5.242;2022-09-12T06:35:18;49.1;;;30.1;;
61627;SDS011;55193;52.102;5.242;2022-09-12T06:38:30;49.1;;;31.0;;
61627;SDS011;55193;52.102;5.242;2022-09-12T06:40:07;52.8;;;31.1;;
61627;SDS011;55193;52.102;5.242;2022-09-12T06:41:45;51.9;;;31.5;;
61627;SDS011;55193;52.102;5.242;2022-09-12T06:43:23;54.9;;;31.9;;
61627;SDS011;55193;52.102;5.242;2022-09-12T06:46:35;49.8;;;30.7;;
61627;SDS011;55193;52.102;5.242;2022-09-12T06:48:11;50.3;;;31.2;;
61627;SDS011;55193;52.102;5.242;2022-09-12T06:49:47;51.6;;;31.6;;
61627;SDS011;55193;52.102;5.242;2022-09-12T06:53:02;50.7;;;31.1;;
61627;SDS011;55193;52.102;5.242;2022-09-12T06:54:38;48.5;;;30.2;;
61627;SDS011;55193;52.102;5.242;2022-09-12T06:56:15;49.6;;;31.1;;
61627;SDS011;55193;52.102;5.242;2022-09-12T06:57:55;51.2;;;31.4;;
61627;SDS011;55193;52.102;5.242;2022-09-12T07:01:07;48.1;;;30.5;;
61627;SDS011;55193;52.102;5.242;2022-09-12T07:02:45;51.7;;;31.9;;
61627;SDS011;55193;52.102;5.242;2022-09-12T07:04:22;45.4;;;29.4;;
61627;SDS011;55193;52.102;5.242;2022-09-12T07:07:38;47.7;;;29.1;;
61627;SDS011;55193;52.102;5.242;2022-09-12T07:09:16;50.5;;;30.6;;
61627;SDS011;55193;52.102;5.242;2022-09-12T07:10:51;42.2;;;27.5;;
61627;SDS011;55193;52.102;5.242;2022-09-12T07:14:04;43.6;;;29.5;;
61627;SDS011;55193;52.102;5.242;2022-09-12T07:15:43;42.6;;;27.7;;
61627;SDS011;55193;52.102;5.242;2022-09-12T07:17:19;41.6;;;27.7;;
61627;SDS011;55193;52.102;5.242;2022-09-12T07:18:56;44.5;;;28.0;;
61627;SDS011;55193;52.102;5.242;2022-09-12T07:22:09;43.0;;;26.7;;
61627;SDS011;55193;52.102;5.242;2022-09-12T07:23:45;45.7;;;29.3;;
61627;SDS011;55193;52.102;5.242;2022-09-12T07:25:22;46.5;;;29.4;;
61627;SDS011;55193;52.102;5.242;2022-09-12T07:28:35;42.8;;;28.6;;
61627;SDS011;55193;52.102;5.242;2022-09-12T07:30:11;41.4;;;26.8;;
61627;SDS011;55193;52.102;5.242;2022-09-12T07:31:47;47.7;;;30.0;;
61627;SDS011;55193;52.102;5.242;2022-09-12T07:35:03;43.2;;;28.6;;
61627;SDS011;55193;52.102;5.242;2022-09-12T07:36:39;41.8;;;27.4;;
61627;SDS011;55193;52.102;5.242;2022-09-12T07:38:15;40.71;;;27.2;;
61627;SDS011;55193;52.102;5.242;2022-09-12T07:39:51;55.6;;;34.31;;
61627;SDS011;55193;52.102;5.242;2022-09-12T07:43:06;40.31;;;27.1;;
61627;SDS011;55193;52.102;5.242;2022-09-12T07:44:43;40.81;;;27.8;;
61627;SDS011;55193;52.102;5.242;2022-09-12T07:46:19;40.6;;;28.1;;
61627;SDS011;55193;52.102;5.242;2022-09-12T07:49:32;49.9;;;30.1;;
61627;SDS011;55193;52.102;5.242;2022-09-12T07:51:08;40.21;;;28.0;;
61627;SDS011;55193;52.102;5.242;2022-09-12T07:52:46;41.7;;;27.2;;
61627;SDS011;55193;52.102;5.242;2022-09-12T07:54:23;41.0;;;27.7;;
61627;SDS011;55193;52.102;5.242;2022-09-12T07:57:36;39.31;;;26.3;;
61627;SDS011;55193;52.102;5.242;2022-09-12T07:59:12;39.5;;;27.3;;
61627;SDS011;55193;52.102;5.242;2022-09-12T08:00:48;42.1;;;27.2;;
61627;SDS011;55193;52.102;5.242;2022-09-12T08:04:04;39.1;;;27.8;;
61627;SDS011;55193;52.102;5.242;2022-09-12T08:05:40;37.4;;;25.0;;
61627;SDS011;55193;52.102;5.242;2022-09-12T08:07:18;39.5;;;26.6;;
61627;SDS011;55193;52.102;5.242;2022-09-12T08:10:33;39.21;;;27.0;;
61627;SDS011;55193;52.102;5.242;2022-09-12T08:12:09;40.71;;;26.7;;
61627;SDS011;55193;52.102;5.242;2022-09-12T08:13:45;37.4;;;26.5;;
61627;SDS011;55193;52.102;5.242;2022-09-12T08:15:22;36.81;;;25.3;;
61627;SDS011;55193;52.102;5.242;2022-09-12T08:18:35;37.4;;;25.3;;
61627;SDS011;55193;52.102;5.242;2022-09-12T08:20:11;35.5;;;24.0;;
61627;SDS011;55193;52.102;5.242;2022-09-12T08:21:47;35.81;;;24.4;;
61627;SDS011;55193;52.102;5.242;2022-09-12T08:25:00;36.0;;;25.3;;
61627;SDS011;55193;52.102;5.242;2022-09-12T08:26:36;34.6;;;24.9;;
61627;SDS011;55193;52.102;5.242;2022-09-12T08:28:13;35.0;;;24.5;;
61627;SDS011;55193;52.102;5.242;2022-09-12T08:31:25;34.9;;;24.5;;
61627;SDS011;55193;52.102;5.242;2022-09-12T08:33:02;32.0;;;23.7;;
61627;SDS011;55193;52.102;5.242;2022-09-12T08:34:38;33.9;;;23.6;;
61627;SDS011;55193;52.102;5.242;2022-09-12T08:36:14;32.3;;;23.3;;
61627;SDS011;55193;52.102;5.242;2022-09-12T08:39:29;32.0;;;22.2;;
61627;SDS011;55193;52.102;5.242;2022-09-12T08:41:07;32.1;;;22.3;;
61627;SDS011;55193;52.102;5.242;2022-09-12T08:42:51;31.1;;;22.3;;
61627;SDS011;55193;52.102;5.242;2022-09-12T08:44:41;63.0;;;37.4;;
61627;SDS011;55193;52.102;5.242;2022-09-12T08:48:18;35.1;;;24.0;;
61627;SDS011;55193;52.102;5.242;2022-09-12T08:49:57;31.9;;;22.7;;
61627;SDS011;55193;52.102;5.242;2022-09-12T08:51:39;28.5;;;21.6;;
61627;SDS011;55193;52.102;5.242;2022-09-12T08:53:17;26.9;;;19.8;;
61627;SDS011;55193;52.102;5.242;2022-09-12T08:56:36;27.9;;;20.5;;
61627;SDS011;55193;52.102;5.242;2022-09-12T08:58:15;25.6;;;19.5;;
61627;SDS011;55193;52.102;5.242;2022-09-12T08:59:55;27.9;;;20.2;;
61627;SDS011;55193;52.102;5.242;2022-09-12T09:01:31;24.8;;;19.41;;
61627;SDS011;55193;52.102;5.242;2022-09-12T09:05:28;26.1;;;19.0;;
61627;SDS011;55193;52.102;5.242;2022-09-12T09:07:19;26.1;;;19.0;;
61627;SDS011;55193;52.102;5.242;2022-09-12T09:09:27;29.4;;;20.6;;
61627;SDS011;55193;52.102;5.242;2022-09-12T09:11:19;26.3;;;19.41;;
61627;SDS011;55193;52.102;5.242;2022-09-12T09:13:11;27.7;;;20.6;;
61627;SDS011;55193;52.102;5.242;2022-09-12T09:15:03;24.5;;;19.41;;
61627;SDS011;55193;52.102;5.242;2022-09-12T09:16:52;23.8;;;18.3;;
61627;SDS011;55193;52.102;5.242;2022-09-12T09:18:32;27.9;;;22.0;;
61627;SDS011;55193;52.102;5.242;2022-09-12T09:20:20;27.1;;;20.9;;
61627;SDS011;55193;52.102;5.242;2022-09-12T09:23:43;25.7;;;20.41;;
61627;SDS011;55193;52.102;5.242;2022-09-12T09:25:24;27.3;;;21.8;;
61627;SDS011;55193;52.102;5.242;2022-09-12T09:27:14;26.8;;;19.7;;
61627;SDS011;55193;52.102;5.242;2022-09-12T09:29:03;26.4;;;21.3;;
61627;SDS011;55193;52.102;5.242;2022-09-12T09:30:47;29.6;;;21.3;;
61627;SDS011;55193;52.102;5.242;2022-09-12T09:34:08;27.9;;;22.2;;
61627;SDS011;55193;52.102;5.242;2022-09-12T09:35:53;28.0;;;21.6;;
61627;SDS011;55193;52.102;5.242;2022-09-12T09:37:36;32.6;;;22.1;;
61627;SDS011;55193;52.102;5.242;2022-09-12T09:39:34;39.9;;;23.4;;
61627;SDS011;55193;52.102;5.242;2022-09-12T09:41:23;49.9;;;29.6;;
61627;SDS011;55193;52.102;5.242;2022-09-12T09:43:15;29.8;;;22.3;;
61627;SDS011;55193;52.102;5.242;2022-09-12T09:46:37;28.7;;;22.5;;
61627;SDS011;55193;52.102;5.242;2022-09-12T09:48:15;28.2;;;21.4;;
61627;SDS011;55193;52.102;5.242;2022-09-12T09:49:53;28.0;;;22.2;;
61627;SDS011;55193;52.102;5.242;2022-09-12T09:51:34;26.6;;;21.4;;
61627;SDS011;55193;52.102;5.242;2022-09-12T09:55:11;23.6;;;18.7;;
61627;SDS011;55193;52.102;5.242;2022-09-12T09:56:52;26.3;;;20.11;;
61627;SDS011;55193;52.102;5.242;2022-09-12T09:58:29;56.6;;;34.1;;
61627;SDS011;55193;52.102;5.242;2022-09-12T10:00:39;22.9;;;18.11;;
61627;SDS011;55193;52.102;5.242;2022-09-12T10:02:18;27.1;;;17.7;;
61627;SDS011;55193;52.102;5.242;2022-09-12T10:05:34;20.7;;;17.61;;
61627;SDS011;55193;52.102;5.242;2022-09-12T10:07:20;22.5;;;18.7;;
61627;SDS011;55193;52.102;5.242;2022-09-12T10:09:14;59.4;;;33.4;;
61627;SDS011;55193;52.102;5.242;2022-09-12T10:10:55;21.4;;;17.2;;
61627;SDS011;55193;52.102;5.242;2022-09-12T10:12:34;20.3;;;16.11;;
61627;SDS011;55193;52.102;5.242;2022-09-12T10:16:18;19.7;;;14.4;;
61627;SDS011;55193;52.102;5.242;2022-09-12T10:17:57;18.0;;;14.2;;
61627;SDS011;55193;52.102;5.242;2022-09-12T10:19:34;14.9;;;12.9;;
61627;SDS011;55193;52.102;5.242;2022-09-12T10:21:14;15.8;;;12.8;;
61627;SDS011;55193;52.102;5.242;2022-09-12T10:22:56;16.0;;;12.9;;
61627;SDS011;55193;52.102;5.242;2022-09-12T10:26:14;16.7;;;12.8;;
61627;SDS011;55193;52.102;5.242;2022-09-12T10:27:55;14.7;;;11.7;;
61627;SDS011;55193;52.102;5.242;2022-09-12T10:29:37;14.3;;;11.9;;
61627;SDS011;55193;52.102;5.242;2022-09-12T10:31:22;14.8;;;12.3;;
61627;SDS011;55193;52.102;5.242;2022-09-12T10:34:43;14.9;;;11.9;;
61627;SDS011;55193;52.102;5.242;2022-09-12T10:36:20;13.9;;;11.2;;
61627;SDS011;55193;52.102;5.242;2022-09-12T10:37:58;14.4;;;12.1;;
61627;SDS011;55193;52.102;5.242;2022-09-12T10:39:37;12.8;;;10.5;;
61627;SDS011;55193;52.102;5.242;2022-09-12T10:42:50;14.5;;;11.5;;
61627;SDS011;55193;52.102;5.242;2022-09-12T10:44:30;15.7;;;11.2;;
61627;SDS011;55193;52.102;5.242;2022-09-12T10:46:27;13.1;;;10.5;;
61627;SDS011;55193;52.102;5.242;2022-09-12T10:48:21;13.2;;;11.1;;
61627;SDS011;55193;52.102;5.242;2022-09-12T10:51:56;12.2;;;9.5;;
61627;SDS011;55193;52.102;5.242;2022-09-12T10:53:50;11.8;;;10.1;;
61627;SDS011;55193;52.102;5.242;2022-09-12T10:55:30;12.7;;;10.1;;
61627;SDS011;55193;52.102;5.242;2022-09-12T10:57:17;12.3;;;10.1;;
61627;SDS011;55193;52.102;5.242;2022-09-12T10:59:08;15.1;;;10.21;;
61627;SDS011;55193;52.102;5.242;2022-09-12T11:00:57;13.6;;;10.6;;
61627;SDS011;55193;52.102;5.242;2022-09-12T11:02:47;13.0;;;10.21;;
61627;SDS011;55193;52.102;5.242;2022-09-12T11:06:24;11.6;;;9.5;;
61627;SDS011;55193;52.102;5.242;2022-09-12T11:08:18;13.2;;;10.1;;
61627;SDS011;55193;52.102;5.242;2022-09-12T11:10:34;13.2;;;11.0;;
61627;SDS011;55193;52.102;5.242;2022-09-12T11:12:22;10.3;;;9.1;;
61627;SDS011;55193;52.102;5.242;2022-09-12T11:14:11;9.0;;;8.1;;
61627;SDS011;55193;52.102;5.242;2022-09-12T11:16:16;8.5;;;7.1;;
61627;SDS011;55193;52.102;5.242;2022-09-12T11:18:03;9.0;;;6.9;;
61627;SDS011;55193;52.102;5.242;2022-09-12T11:21:13;10.6;;;7.2;;
61627;SDS011;55193;52.102;5.242;2022-09-12T11:24:17;11.8;;;8.0;;
61627;SDS011;55193;52.102;5.242;2022-09-12T11:26:52;12.8;;;7.6;;
61627;SDS011;55193;52.102;5.242;2022-09-12T11:28:41;8.5;;;6.5;;
61627;SDS011;55193;52.102;5.242;2022-09-12T11:30:28;9.1;;;7.3;;
61627;SDS011;55193;52.102;5.242;2022-09-12T11:32:26;6.9;;;6.1;;
61627;SDS011;55193;52.102;5.242;2022-09-12T11:35:05;7.8;;;6.5;;
61627;SDS011;55193;52.102;5.242;2022-09-12T11:36:54;6.5;;;5.8;;
61627;SDS011;55193;52.102;5.242;2022-09-12T11:38:48;9.21;;;6.2;;
61627;SDS011;55193;52.102;5.242;2022-09-12T11:40:27;8.1;;;6.3;;
61627;SDS011;55193;52.102;5.242;2022-09-12T11:43:54;8.5;;;7.0;;
61627;SDS011;55193;52.102;5.242;2022-09-12T11:45:37;10.9;;;7.5;;
61627;SDS011;55193;52.102;5.242;2022-09-12T11:47:19;9.0;;;6.1;;
61627;SDS011;55193;52.102;5.242;2022-09-12T11:48:58;6.9;;;5.9;;
61627;SDS011;55193;52.102;5.242;2022-09-12T11:52:16;7.3;;;6.2;;
61627;SDS011;55193;52.102;5.242;2022-09-12T11:53:58;6.2;;;5.2;;
61627;SDS011;55193;52.102;5.242;2022-09-12T11:55:45;8.9;;;6.8;;
61627;SDS011;55193;52.102;5.242;2022-09-12T11:57:29;8.5;;;6.5;;
61627;SDS011;55193;52.102;5.242;2022-09-12T11:59:15;8.5;;;6.2;;
61627;SDS011;55193;52.102;5.242;2022-09-12T12:02:52;8.2;;;7.1;;
61627;SDS011;55193;52.102;5.242;2022-09-12T12:04:43;11.3;;;6.8;;
61627;SDS011;55193;52.102;5.242;2022-09-12T12:06:35;8.6;;;6.5;;
61627;SDS011;55193;52.102;5.242;2022-09-12T12:08:23;7.3;;;5.5;;
61627;SDS011;55193;52.102;5.242;2022-09-12T12:10:02;7.4;;;5.8;;
61627;SDS011;55193;52.102;5.242;2022-09-12T12:13:22;6.0;;;5.0;;
61627;SDS011;55193;52.102;5.242;2022-09-12T12:15:05;7.2;;;5.6;;
61627;SDS011;55193;52.102;5.242;2022-09-12T12:16:41;7.4;;;5.3;;
61627;SDS011;55193;52.102;5.242;2022-09-12T12:18:20;5.7;;;5.11;;
61627;SDS011;55193;52.102;5.242;2022-09-12T12:21:39;5.2;;;4.7;;
61627;SDS011;55193;52.102;5.242;2022-09-12T12:23:21;6.5;;;5.2;;
61627;SDS011;55193;52.102;5.242;2022-09-12T12:25:02;6.2;;;4.91;;
61627;SDS011;55193;52.102;5.242;2022-09-12T12:26:57;8.4;;;4.7;;
61627;SDS011;55193;52.102;5.242;2022-09-12T12:29:09;7.9;;;5.11;;
61627;SDS011;55193;52.102;5.242;2022-09-12T12:31:00;7.3;;;5.7;;
61627;SDS011;55193;52.102;5.242;2022-09-12T12:32:37;7.6;;;5.11;;
61627;SDS011;55193;52.102;5.242;2022-09-12T12:36:03;5.0;;;4.5;;
61627;SDS011;55193;52.102;5.242;2022-09-12T12:37:46;6.9;;;4.7;;
61627;SDS011;55193;52.102;5.242;2022-09-12T12:41:42;5.8;;;4.8;;
61627;SDS011;55193;52.102;5.242;2022-09-12T12:43:27;7.1;;;4.91;;